sensor_id;sensor_type;location;lat;lon;timestamp;pressure;altitude;pressure_sealevel;temperature;humidity
21869;BME280;11099;41.564;23.296;2022-07-29T00:01:06;97611.59;;;21.99;100.00
21869;BME280;11099;41.564;23.296;2022-07-29T00:03:32;97619.75;;;22.02;100.00
21869;BME280;11099;41.564;23.296;2022-07-29T00:05:59;97613.19;;;22.07;100.00
21869;BME280;11099;41.564;23.296;2022-07-29T00:08:24;97464.31;;;21.08;100.00
21869;BME280;11099;41.564;23.296;2022-07-29T00:10:51;97439.72;;;21.27;100.00
21869;BME280;11099;41.564;23.296;2022-07-29T00:13:17;97490.69;;;21.76;100.00
21869;BME280;11099;41.564;23.296;2022-07-29T00:15:44;97607.69;;;22.80;100.00
21869;BME280;11099;41.564;23.296;2022-07-29T00:18:12;97485.09;;;22.21;100.00
21869;BME280;11099;41.564;23.296;2022-07-29T00:20:42;97505.31;;;22.55;100.00
21869;BME280;11099;41.564;23.296;2022-07-29T00:23:08;97489.78;;;22.31;100.00
21869;BME280;11099;41.564;23.296;2022-07-29T00:25:34;97604.97;;;22.80;100.00
21869;BME280;11099;41.564;23.296;2022-07-29T00:28:04;97549.50;;;22.63;100.00
21869;BME280;11099;41.564;23.296;2022-07-29T00:30:30;97569.31;;;22.74;100.00
21869;BME280;11099;41.564;23.296;2022-07-29T00:32:56;97423.72;;;21.80;100.00
21869;BME280;11099;41.564;23.296;2022-07-29T00:35:22;97543.72;;;21.81;100.00
21869;BME280;11099;41.564;23.296;2022-07-29T00:38:06;97455.81;;;21.05;100.00
21869;BME280;11099;41.564;23.296;2022-07-29T00:40:32;97491.75;;;21.54;100.00
21869;BME280;11099;41.564;23.296;2022-07-29T00:42:58;97437.34;;;21.22;100.00
21869;BME280;11099;41.564;23.296;2022-07-29T00:45:25;97618.06;;;22.46;100.00
21869;BME280;11099;41.564;23.296;2022-07-29T00:47:51;97463.50;;;21.00;100.00
21869;BME280;11099;41.564;23.296;2022-07-29T00:50:17;97460.88;;;21.11;100.00
21869;BME280;11099;41.564;23.296;2022-07-29T00:52:44;97494.13;;;21.15;100.00
21869;BME280;11099;41.564;23.296;2022-07-29T00:55:12;97340.38;;;20.72;100.00
21869;BME280;11099;41.564;23.296;2022-07-29T00:57:40;97527.19;;;22.00;100.00
21869;BME280;11099;41.564;23.296;2022-07-29T01:00:12;97420.78;;;20.72;100.00
21869;BME280;11099;41.564;23.296;2022-07-29T01:02:39;97538.28;;;21.22;100.00
21869;BME280;11099;41.564;23.296;2022-07-29T01:05:06;97512.03;;;20.78;100.00
21869;BME280;11099;41.564;23.296;2022-07-29T01:07:37;97344.81;;;19.65;100.00
21869;BME280;11099;41.564;23.296;2022-07-29T01:10:08;97509.28;;;20.75;100.00
21869;BME280;11099;41.564;23.296;2022-07-29T01:12:36;97584.19;;;21.52;100.00
21869;BME280;11099;41.564;23.296;2022-07-29T01:15:04;97323.00;;;20.22;100.00
21869;BME280;11099;41.564;23.296;2022-07-29T01:18:28;97382.34;;;20.52;100.00
21869;BME280;11099;41.564;23.296;2022-07-29T01:23:57;97410.91;;;20.49;100.00
21869;BME280;11099;41.564;23.296;2022-07-29T01:26:56;97580.41;;;21.64;100.00
21869;BME280;11099;41.564;23.296;2022-07-29T01:29:44;97419.44;;;20.14;100.00
21869;BME280;11099;41.564;23.296;2022-07-29T01:32:16;97450.97;;;20.81;100.00
21869;BME280;11099;41.564;23.296;2022-07-29T01:35:06;97433.00;;;20.59;100.00
21869;BME280;11099;41.564;23.296;2022-07-29T01:40:04;97509.38;;;20.86;100.00
21869;BME280;11099;41.564;23.296;2022-07-29T01:42:35;97386.66;;;19.82;100.00
21869;BME280;11099;41.564;23.296;2022-07-29T01:45:08;97527.59;;;20.92;100.00
21869;BME280;11099;41.564;23.296;2022-07-29T01:47:46;97378.34;;;19.98;100.00
21869;BME280;11099;41.564;23.296;2022-07-29T01:50:16;97574.47;;;21.03;100.00
21869;BME280;11099;41.564;23.296;2022-07-29T01:52:54;97577.41;;;21.28;100.00
21869;BME280;11099;41.564;23.296;2022-07-29T01:55:25;97389.78;;;19.84;100.00
21869;BME280;11099;41.564;23.296;2022-07-29T01:57:54;97573.09;;;21.24;100.00
21869;BME280;11099;41.564;23.296;2022-07-29T02:00:22;97449.38;;;20.36;100.00
21869;BME280;11099;41.564;23.296;2022-07-29T02:02:50;97479.41;;;20.61;100.00
21869;BME280;11099;41.564;23.296;2022-07-29T02:05:19;97415.75;;;20.33;100.00
21869;BME280;11099;41.564;23.296;2022-07-29T02:07:47;97520.19;;;20.86;100.00
21869;BME280;11099;41.564;23.296;2022-07-29T02:10:14;97566.72;;;21.02;100.00
21869;BME280;11099;41.564;23.296;2022-07-29T02:12:43;97410.56;;;19.80;100.00
21869;BME280;11099;41.564;23.296;2022-07-29T02:15:14;97373.72;;;19.65;100.00
21869;BME280;11099;41.564;23.296;2022-07-29T02:17:48;97485.31;;;20.73;100.00
21869;BME280;11099;41.564;23.296;2022-07-29T02:20:16;97418.03;;;20.27;100.00
21869;BME280;11099;41.564;23.296;2022-07-29T02:22:47;97446.06;;;20.49;100.00
21869;BME280;11099;41.564;23.296;2022-07-29T02:25:17;97365.72;;;19.72;100.00
21869;BME280;11099;41.564;23.296;2022-07-29T02:27:44;97512.47;;;20.47;100.00
21869;BME280;11099;41.564;23.296;2022-07-29T02:30:12;97443.09;;;20.24;100.00
21869;BME280;11099;41.564;23.296;2022-07-29T02:32:41;97373.28;;;19.59;100.00
21869;BME280;11099;41.564;23.296;2022-07-29T02:35:09;97491.34;;;21.00;100.00
21869;BME280;11099;41.564;23.296;2022-07-29T02:37:40;97524.19;;;21.43;100.00
21869;BME280;11099;41.564;23.296;2022-07-29T02:40:11;97401.56;;;20.91;100.00
21869;BME280;11099;41.564;23.296;2022-07-29T02:42:41;97458.69;;;20.79;100.00
21869;BME280;11099;41.564;23.296;2022-07-29T02:45:08;97464.91;;;20.83;100.00
21869;BME280;11099;41.564;23.296;2022-07-29T02:47:40;97568.66;;;21.46;100.00
21869;BME280;11099;41.564;23.296;2022-07-29T02:50:34;97480.63;;;20.67;100.00
21869;BME280;11099;41.564;23.296;2022-07-29T02:53:05;97573.53;;;21.77;100.00
21869;BME280;11099;41.564;23.296;2022-07-29T02:55:58;97565.34;;;21.67;100.00
21869;BME280;11099;41.564;23.296;2022-07-29T02:58:31;97444.31;;;20.31;100.00
21869;BME280;11099;41.564;23.296;2022-07-29T03:01:20;97579.63;;;21.16;100.00
21869;BME280;11099;41.564;23.296;2022-07-29T03:03:46;97563.75;;;21.62;100.00
21869;BME280;11099;41.564;23.296;2022-07-29T03:06:18;97438.34;;;20.51;100.00
21869;BME280;11099;41.564;23.296;2022-07-29T03:08:46;97550.09;;;21.03;100.00
21869;BME280;11099;41.564;23.296;2022-07-29T03:11:15;97528.34;;;20.89;100.00
21869;BME280;11099;41.564;23.296;2022-07-29T03:13:42;97456.19;;;20.56;100.00
21869;BME280;11099;41.564;23.296;2022-07-29T03:16:11;97436.53;;;20.25;100.00
21869;BME280;11099;41.564;23.296;2022-07-29T03:18:38;97574.28;;;21.71;100.00
21869;BME280;11099;41.564;23.296;2022-07-29T03:21:05;97420.06;;;20.41;100.00
21869;BME280;11099;41.564;23.296;2022-07-29T03:23:31;97595.88;;;21.64;100.00
21869;BME280;11099;41.564;23.296;2022-07-29T03:26:03;97384.59;;;20.06;100.00
21869;BME280;11099;41.564;23.296;2022-07-29T03:28:31;97480.38;;;20.86;100.00
21869;BME280;11099;41.564;23.296;2022-07-29T03:30:57;97565.63;;;21.07;100.00
21869;BME280;11099;41.564;23.296;2022-07-29T03:33:23;97492.41;;;20.92;100.00
21869;BME280;11099;41.564;23.296;2022-07-29T03:35:48;97445.31;;;21.00;100.00
21869;BME280;11099;41.564;23.296;2022-07-29T03:38:14;97384.97;;;19.70;100.00
21869;BME280;11099;41.564;23.296;2022-07-29T03:40:51;97477.91;;;20.30;100.00
21869;BME280;11099;41.564;23.296;2022-07-29T03:43:18;97557.25;;;20.82;100.00
21869;BME280;11099;41.564;23.296;2022-07-29T03:45:47;97528.41;;;20.22;100.00
21869;BME280;11099;41.564;23.296;2022-07-29T03:48:16;97468.84;;;20.15;100.00
21869;BME280;11099;41.564;23.296;2022-07-29T03:50:43;97437.06;;;20.01;100.00
21869;BME280;11099;41.564;23.296;2022-07-29T03:53:09;97561.56;;;20.86;100.00
21869;BME280;11099;41.564;23.296;2022-07-29T03:55:41;97456.38;;;20.40;100.00
21869;BME280;11099;41.564;23.296;2022-07-29T03:58:08;97411.28;;;19.47;100.00
21869;BME280;11099;41.564;23.296;2022-07-29T04:00:35;97612.28;;;21.34;100.00
21869;BME280;11099;41.564;23.296;2022-07-29T04:03:04;97522.72;;;21.60;100.00
21869;BME280;11099;41.564;23.296;2022-07-29T04:05:30;97517.53;;;21.34;100.00
21869;BME280;11099;41.564;23.296;2022-07-29T04:07:56;97550.53;;;21.50;100.00
21869;BME280;11099;41.564;23.296;2022-07-29T04:10:22;97433.66;;;20.93;100.00
21869;BME280;11099;41.564;23.296;2022-07-29T04:12:49;97613.13;;;22.69;100.00
21869;BME280;11099;41.564;23.296;2022-07-29T04:15:15;97503.78;;;22.79;100.00
21869;BME280;11099;41.564;23.296;2022-07-29T04:17:45;97489.03;;;22.52;100.00
21869;BME280;11099;41.564;23.296;2022-07-29T04:20:12;97619.50;;;23.66;93.31
21869;BME280;11099;41.564;23.296;2022-07-29T04:22:39;97583.38;;;23.80;88.79
21869;BME280;11099;41.564;23.296;2022-07-29T04:25:07;97630.13;;;24.66;83.57
21869;BME280;11099;41.564;23.296;2022-07-29T04:27:36;97438.34;;;24.15;81.39
21869;BME280;11099;41.564;23.296;2022-07-29T04:30:22;97426.88;;;24.52;77.45
21869;BME280;11099;41.564;23.296;2022-07-29T04:32:51;97592.44;;;24.68;78.06
21869;BME280;11099;41.564;23.296;2022-07-29T04:35:17;97618.00;;;25.47;75.39
21869;BME280;11099;41.564;23.296;2022-07-29T04:37:45;97591.25;;;24.69;76.76
21869;BME280;11099;41.564;23.296;2022-07-29T04:40:11;97438.66;;;24.31;74.78
21869;BME280;11099;41.564;23.296;2022-07-29T04:42:38;97468.47;;;23.51;76.02
21869;BME280;11099;41.564;23.296;2022-07-29T04:45:04;97480.13;;;23.55;76.55
21869;BME280;11099;41.564;23.296;2022-07-29T04:47:34;97495.69;;;24.56;73.83
21869;BME280;11099;41.564;23.296;2022-07-29T04:50:10;97463.69;;;25.19;69.24
21869;BME280;11099;41.564;23.296;2022-07-29T04:52:37;97562.69;;;26.26;68.00
21869;BME280;11099;41.564;23.296;2022-07-29T04:55:05;97410.44;;;24.66;68.53
21869;BME280;11099;41.564;23.296;2022-07-29T04:57:32;97625.84;;;26.24;68.25
21869;BME280;11099;41.564;23.296;2022-07-29T05:00:01;97478.94;;;25.13;67.40
21869;BME280;11099;41.564;23.296;2022-07-29T05:02:27;97579.50;;;24.83;71.22
21869;BME280;11099;41.564;23.296;2022-07-29T05:04:54;97452.31;;;24.21;71.83
21869;BME280;11099;41.564;23.296;2022-07-29T05:07:20;97408.28;;;23.70;74.85
21869;BME280;11099;41.564;23.296;2022-07-29T05:09:46;97548.09;;;25.71;71.36
21869;BME280;11099;41.564;23.296;2022-07-29T05:12:12;97473.38;;;25.99;68.04
21869;BME280;11099;41.564;23.296;2022-07-29T05:14:37;97485.97;;;25.52;67.40
21869;BME280;11099;41.564;23.296;2022-07-29T05:17:03;97437.31;;;25.09;69.44
21869;BME280;11099;41.564;23.296;2022-07-29T05:19:29;97547.94;;;26.20;66.43
21869;BME280;11099;41.564;23.296;2022-07-29T05:21:54;97647.25;;;27.25;64.96
21869;BME280;11099;41.564;23.296;2022-07-29T05:24:26;97505.97;;;25.76;66.54
21869;BME280;11099;41.564;23.296;2022-07-29T05:26:52;97427.00;;;24.86;68.00
21869;BME280;11099;41.564;23.296;2022-07-29T05:29:18;97566.56;;;26.59;65.73
21869;BME280;11099;41.564;23.296;2022-07-29T05:31:44;97515.38;;;25.30;68.33
21869;BME280;11099;41.564;23.296;2022-07-29T05:34:12;97507.03;;;25.00;69.99
21869;BME280;11099;41.564;23.296;2022-07-29T05:36:37;97462.75;;;24.88;71.61
21869;BME280;11099;41.564;23.296;2022-07-29T05:39:03;97555.94;;;26.04;69.28
21869;BME280;11099;41.564;23.296;2022-07-29T05:41:32;97497.84;;;25.31;70.95
21869;BME280;11099;41.564;23.296;2022-07-29T05:43:59;97512.97;;;25.39;71.20
21869;BME280;11099;41.564;23.296;2022-07-29T05:46:25;97650.50;;;27.16;68.22
21869;BME280;11099;41.564;23.296;2022-07-29T05:48:50;97494.38;;;26.02;67.44
21869;BME280;11099;41.564;23.296;2022-07-29T05:51:16;97536.66;;;26.79;66.75
21869;BME280;11099;41.564;23.296;2022-07-29T05:53:41;97515.16;;;25.52;70.36
21869;BME280;11099;41.564;23.296;2022-07-29T05:56:09;97598.31;;;26.15;70.24
21869;BME280;11099;41.564;23.296;2022-07-29T05:58:36;97519.59;;;25.76;70.65
21869;BME280;11099;41.564;23.296;2022-07-29T06:01:24;97428.81;;;25.79;68.62
21869;BME280;11099;41.564;23.296;2022-07-29T06:04:02;97561.56;;;27.12;65.79
21869;BME280;11099;41.564;23.296;2022-07-29T06:06:28;97586.44;;;27.44;63.78
21869;BME280;11099;41.564;23.296;2022-07-29T06:09:00;97650.38;;;28.21;63.24
21869;BME280;11099;41.564;23.296;2022-07-29T06:11:27;97538.13;;;27.38;62.50
21869;BME280;11099;41.564;23.296;2022-07-29T06:13:52;97545.94;;;27.36;63.12
21869;BME280;11099;41.564;23.296;2022-07-29T06:16:18;97574.50;;;28.01;62.42
21869;BME280;11099;41.564;23.296;2022-07-29T06:18:45;97648.84;;;28.99;60.67
21869;BME280;11099;41.564;23.296;2022-07-29T06:21:11;97635.88;;;28.00;60.80
21869;BME280;11099;41.564;23.296;2022-07-29T06:23:37;97584.75;;;28.57;59.46
21869;BME280;11099;41.564;23.296;2022-07-29T06:26:03;97587.00;;;28.22;58.73
21869;BME280;11099;41.564;23.296;2022-07-29T06:28:31;97480.59;;;27.45;58.62
21869;BME280;11099;41.564;23.296;2022-07-29T06:30:57;97584.53;;;27.65;60.67
21869;BME280;11099;41.564;23.296;2022-07-29T06:33:23;97572.34;;;27.46;61.32
21869;BME280;11099;41.564;23.296;2022-07-29T06:35:49;97450.63;;;26.67;61.78
21869;BME280;11099;41.564;23.296;2022-07-29T06:38:25;97480.91;;;27.27;60.38
21869;BME280;11099;41.564;23.296;2022-07-29T06:40:54;97513.00;;;26.96;61.92
21869;BME280;11099;41.564;23.296;2022-07-29T06:43:47;97447.50;;;26.42;62.04
21869;BME280;11099;41.564;23.296;2022-07-29T06:46:19;97494.84;;;27.33;59.59
21869;BME280;11099;41.564;23.296;2022-07-29T06:48:45;97659.00;;;28.63;59.30
21869;BME280;11099;41.564;23.296;2022-07-29T06:51:14;97604.41;;;28.32;59.81
21869;BME280;11099;41.564;23.296;2022-07-29T06:53:42;97583.75;;;28.67;58.23
21869;BME280;11099;41.564;23.296;2022-07-29T06:56:09;97511.50;;;28.61;56.42
21869;BME280;11099;41.564;23.296;2022-07-29T06:58:35;97573.53;;;28.51;56.94
21869;BME280;11099;41.564;23.296;2022-07-29T07:01:06;97514.97;;;28.45;56.83
21869;BME280;11099;41.564;23.296;2022-07-29T07:03:42;97581.91;;;28.80;56.74
21869;BME280;11099;41.564;23.296;2022-07-29T07:06:08;97520.44;;;28.45;57.16
21869;BME280;11099;41.564;23.296;2022-07-29T07:08:34;97558.84;;;29.14;56.04
21869;BME280;11099;41.564;23.296;2022-07-29T07:11:00;97626.63;;;29.79;55.06
21869;BME280;11099;41.564;23.296;2022-07-29T07:13:29;97459.06;;;28.06;57.44
21869;BME280;11099;41.564;23.296;2022-07-29T07:16:01;97505.63;;;28.63;56.33
21869;BME280;11099;41.564;23.296;2022-07-29T07:18:31;97621.66;;;28.88;57.83
21869;BME280;11099;41.564;23.296;2022-07-29T07:20:58;97551.28;;;28.49;57.79
21869;BME280;11099;41.564;23.296;2022-07-29T07:23:24;97440.50;;;27.98;56.98
21869;BME280;11099;41.564;23.296;2022-07-29T07:25:50;97575.72;;;29.45;55.43
21869;BME280;11099;41.564;23.296;2022-07-29T07:28:17;97618.25;;;29.99;54.47
21869;BME280;11099;41.564;23.296;2022-07-29T07:30:44;97617.75;;;29.58;56.63
21869;BME280;11099;41.564;23.296;2022-07-29T07:33:29;97422.75;;;28.58;54.60
21869;BME280;11099;41.564;23.296;2022-07-29T07:35:55;97557.81;;;29.57;54.00
21869;BME280;11099;41.564;23.296;2022-07-29T07:38:24;97622.97;;;30.14;54.10
21869;BME280;11099;41.564;23.296;2022-07-29T07:40:51;97508.06;;;28.93;56.01
21869;BME280;11099;41.564;23.296;2022-07-29T07:43:17;97402.22;;;27.78;56.09
21869;BME280;11099;41.564;23.296;2022-07-29T07:45:48;97483.59;;;28.66;56.78
21869;BME280;11099;41.564;23.296;2022-07-29T07:48:20;97556.03;;;28.65;58.31
21869;BME280;11099;41.564;23.296;2022-07-29T07:50:46;97488.72;;;28.28;58.12
21869;BME280;11099;41.564;23.296;2022-07-29T07:53:12;97488.81;;;28.24;58.14
21869;BME280;11099;41.564;23.296;2022-07-29T07:55:42;97396.56;;;28.41;55.39
21869;BME280;11099;41.564;23.296;2022-07-29T07:58:08;97550.09;;;29.68;54.68
21869;BME280;11099;41.564;23.296;2022-07-29T08:00:35;97544.97;;;29.83;53.65
21869;BME280;11099;41.564;23.296;2022-07-29T08:03:03;97612.28;;;29.87;55.26
21869;BME280;11099;41.564;23.296;2022-07-29T08:05:31;97523.25;;;28.78;57.05
21869;BME280;11099;41.564;23.296;2022-07-29T08:07:57;97377.03;;;27.47;57.92
21869;BME280;11099;41.564;23.296;2022-07-29T08:10:23;97510.50;;;28.87;57.53
21869;BME280;11099;41.564;23.296;2022-07-29T08:13:08;97431.94;;;28.68;56.06
21869;BME280;11099;41.564;23.296;2022-07-29T08:15:35;97592.22;;;29.90;55.95
21869;BME280;11099;41.564;23.296;2022-07-29T08:18:02;97590.66;;;30.35;53.87
21869;BME280;11099;41.564;23.296;2022-07-29T08:20:28;97592.25;;;30.20;54.55
21869;BME280;11099;41.564;23.296;2022-07-29T08:22:58;97454.78;;;29.56;52.76
21869;BME280;11099;41.564;23.296;2022-07-29T08:25:28;97531.13;;;28.76;56.69
21869;BME280;11099;41.564;23.296;2022-07-29T08:27:54;97529.94;;;28.77;57.38
21869;BME280;11099;41.564;23.296;2022-07-29T08:30:20;97423.44;;;28.79;56.01
21869;BME280;11099;41.564;23.296;2022-07-29T08:32:48;97395.44;;;29.04;54.43
21869;BME280;11099;41.564;23.296;2022-07-29T08:35:15;97495.19;;;29.97;53.11
21869;BME280;11099;41.564;23.296;2022-07-29T08:37:41;97414.75;;;29.58;52.94
21869;BME280;11099;41.564;23.296;2022-07-29T08:40:11;97518.78;;;30.24;52.73
21869;BME280;11099;41.564;23.296;2022-07-29T08:42:37;97458.03;;;30.22;51.85
21869;BME280;11099;41.564;23.296;2022-07-29T08:45:04;97548.38;;;30.45;52.58
21869;BME280;11099;41.564;23.296;2022-07-29T08:47:30;97390.78;;;29.46;51.96
21869;BME280;11099;41.564;23.296;2022-07-29T08:49:58;97465.03;;;30.10;52.20
21869;BME280;11099;41.564;23.296;2022-07-29T08:52:26;97435.81;;;30.03;51.86
21869;BME280;11099;41.564;23.296;2022-07-29T08:54:54;97520.25;;;30.54;51.43
21869;BME280;11099;41.564;23.296;2022-07-29T08:57:23;97565.44;;;31.04;50.61
21869;BME280;11099;41.564;23.296;2022-07-29T08:59:50;97567.88;;;30.89;50.00
21869;BME280;11099;41.564;23.296;2022-07-29T09:02:22;97430.34;;;30.16;48.75
21869;BME280;11099;41.564;23.296;2022-07-29T09:04:49;97401.38;;;29.60;49.46
21869;BME280;11099;41.564;23.296;2022-07-29T09:07:19;97389.78;;;29.82;49.77
21869;BME280;11099;41.564;23.296;2022-07-29T09:09:59;97519.47;;;31.04;48.13
21869;BME280;11099;41.564;23.296;2022-07-29T09:12:32;97400.13;;;30.03;48.22
21869;BME280;11099;41.564;23.296;2022-07-29T09:15:05;97447.84;;;30.35;48.39
21869;BME280;11099;41.564;23.296;2022-07-29T09:56:52;97519.50;;;33.01;40.79
21869;BME280;11099;41.564;23.296;2022-07-29T10:15:53;97503.38;;;33.49;38.17
21869;BME280;11099;41.564;23.296;2022-07-29T10:18:19;97500.44;;;33.62;37.97
21869;BME280;11099;41.564;23.296;2022-07-29T10:44:26;97473.31;;;33.70;35.60
21869;BME280;11099;41.564;23.296;2022-07-29T10:47:30;97334.59;;;32.87;35.09
21869;BME280;11099;41.564;23.296;2022-07-29T10:50:00;97421.16;;;33.72;34.57
21869;BME280;11099;41.564;23.296;2022-07-29T10:55:34;97458.59;;;33.64;33.64
21869;BME280;11099;41.564;23.296;2022-07-29T10:58:26;97342.41;;;33.25;33.73
21869;BME280;11099;41.564;23.296;2022-07-29T11:01:29;97441.41;;;33.96;34.11
21869;BME280;11099;41.564;23.296;2022-07-29T11:10:39;97389.19;;;34.07;32.14
21869;BME280;11099;41.564;23.296;2022-07-29T11:13:05;97405.94;;;34.46;32.22
21869;BME280;11099;41.564;23.296;2022-07-29T11:15:53;97427.47;;;34.66;32.27
21869;BME280;11099;41.564;23.296;2022-07-29T11:18:19;97424.16;;;34.77;31.65
21869;BME280;11099;41.564;23.296;2022-07-29T11:20:50;97431.00;;;34.91;31.46
21869;BME280;11099;41.564;23.296;2022-07-29T11:23:33;97327.34;;;34.05;31.99
21869;BME280;11099;41.564;23.296;2022-07-29T11:29:03;97416.75;;;34.59;32.36
21869;BME280;11099;41.564;23.296;2022-07-29T11:34:19;97366.19;;;34.34;31.60
21869;BME280;11099;41.564;23.296;2022-07-29T11:39:30;97402.59;;;34.90;31.89
21869;BME280;11099;41.564;23.296;2022-07-29T11:47:23;97333.75;;;34.44;31.59
21869;BME280;11099;41.564;23.296;2022-07-29T11:49:55;97336.06;;;34.70;31.21
21869;BME280;11099;41.564;23.296;2022-07-29T11:52:22;97408.97;;;35.05;30.78
21869;BME280;11099;41.564;23.296;2022-07-29T11:54:50;97352.28;;;34.77;31.09
21869;BME280;11099;41.564;23.296;2022-07-29T11:57:18;97346.84;;;34.82;30.63
21869;BME280;11099;41.564;23.296;2022-07-29T11:59:45;97330.28;;;34.58;30.87
21869;BME280;11099;41.564;23.296;2022-07-29T12:02:12;97382.28;;;35.32;31.30
21869;BME280;11099;41.564;23.296;2022-07-29T12:04:57;97387.41;;;35.09;31.47
21869;BME280;11099;41.564;23.296;2022-07-29T12:10:31;97270.00;;;34.24;31.39
21869;BME280;11099;41.564;23.296;2022-07-29T12:12:59;97281.31;;;34.59;30.62
21869;BME280;11099;41.564;23.296;2022-07-29T12:15:27;97261.75;;;34.39;31.35
21869;BME280;11099;41.564;23.296;2022-07-29T12:17:54;97296.81;;;34.80;31.29
21869;BME280;11099;41.564;23.296;2022-07-29T12:20:27;97381.84;;;35.33;31.52
21869;BME280;11099;41.564;23.296;2022-07-29T12:22:54;97387.38;;;35.33;30.46
21869;BME280;11099;41.564;23.296;2022-07-29T12:25:22;97307.22;;;34.85;30.43
21869;BME280;11099;41.564;23.296;2022-07-29T12:27:58;97346.41;;;34.84;30.54
21869;BME280;11099;41.564;23.296;2022-07-29T12:30:37;97318.84;;;34.51;30.50
21869;BME280;11099;41.564;23.296;2022-07-29T12:33:24;97363.78;;;35.38;30.48
21869;BME280;11099;41.564;23.296;2022-07-29T12:35:58;97300.25;;;34.90;30.32
21869;BME280;11099;41.564;23.296;2022-07-29T12:41:29;97348.94;;;34.97;30.49
21869;BME280;11099;41.564;23.296;2022-07-29T12:43:55;97159.41;;;33.94;30.46
21869;BME280;11099;41.564;23.296;2022-07-29T12:46:21;97250.06;;;34.82;30.61
21869;BME280;11099;41.564;23.296;2022-07-29T12:54:52;97336.94;;;35.15;29.71
21869;BME280;11099;41.564;23.296;2022-07-29T12:57:18;97316.09;;;34.90;29.25
21869;BME280;11099;41.564;23.296;2022-07-29T12:59:43;97307.00;;;35.13;29.42
21869;BME280;11099;41.564;23.296;2022-07-29T13:02:21;97329.13;;;35.43;29.34
21869;BME280;11099;41.564;23.296;2022-07-29T13:04:57;97331.47;;;35.59;30.01
21869;BME280;11099;41.564;23.296;2022-07-29T13:07:27;97261.56;;;35.20;30.66
21869;BME280;11099;41.564;23.296;2022-07-29T13:09:53;97329.91;;;35.43;30.67
21869;BME280;11099;41.564;23.296;2022-07-29T13:12:19;97275.06;;;34.88;30.08
21869;BME280;11099;41.564;23.296;2022-07-29T13:20:11;97249.00;;;34.41;29.97
21869;BME280;11099;41.564;23.296;2022-07-29T13:26:42;97313.91;;;34.94;29.70
21869;BME280;11099;41.564;23.296;2022-07-29T13:29:18;97196.13;;;34.10;30.32
21869;BME280;11099;41.564;23.296;2022-07-29T13:31:43;97303.84;;;35.20;30.02
21869;BME280;11099;41.564;23.296;2022-07-29T13:40:14;97303.94;;;35.26;29.97
21869;BME280;11099;41.564;23.296;2022-07-29T13:42:41;97295.06;;;35.22;30.08
21869;BME280;11099;41.564;23.296;2022-07-29T13:45:07;97307.00;;;35.28;29.92
21869;BME280;11099;41.564;23.296;2022-07-29T13:47:33;97222.06;;;34.90;29.66
21869;BME280;11099;41.564;23.296;2022-07-29T13:50:03;97274.34;;;35.32;29.38
21869;BME280;11099;41.564;23.296;2022-07-29T13:52:29;97277.03;;;35.41;29.21
21869;BME280;11099;41.564;23.296;2022-07-29T13:54:56;97288.31;;;35.67;29.39
21869;BME280;11099;41.564;23.296;2022-07-29T13:57:24;97236.69;;;35.34;29.20
21869;BME280;11099;41.564;23.296;2022-07-29T13:59:50;97235.25;;;35.39;29.07
21869;BME280;11099;41.564;23.296;2022-07-29T14:02:16;97299.25;;;35.76;29.45
21869;BME280;11099;41.564;23.296;2022-07-29T14:04:42;97247.84;;;35.40;29.53
21869;BME280;11099;41.564;23.296;2022-07-29T14:07:08;97289.44;;;35.75;29.44
21869;BME280;11099;41.564;23.296;2022-07-29T14:09:33;97240.19;;;34.91;29.52
21869;BME280;11099;41.564;23.296;2022-07-29T14:11:59;97280.56;;;35.27;30.09
21869;BME280;11099;41.564;23.296;2022-07-29T14:14:26;97279.81;;;35.11;29.99
21869;BME280;11099;41.564;23.296;2022-07-29T14:16:52;97294.59;;;35.08;30.27
21869;BME280;11099;41.564;23.296;2022-07-29T14:19:17;97261.91;;;34.83;30.33
21869;BME280;11099;41.564;23.296;2022-07-29T14:21:43;97285.59;;;34.60;30.97
21869;BME280;11099;41.564;23.296;2022-07-29T14:24:09;97281.78;;;34.57;31.21
21869;BME280;11099;41.564;23.296;2022-07-29T14:26:34;97296.00;;;34.65;31.27
21869;BME280;11099;41.564;23.296;2022-07-29T14:29:00;97296.16;;;34.38;31.31
21869;BME280;11099;41.564;23.296;2022-07-29T14:31:25;97206.44;;;33.76;30.71
21869;BME280;11099;41.564;23.296;2022-07-29T14:33:51;97248.59;;;34.10;31.27
21869;BME280;11099;41.564;23.296;2022-07-29T14:36:16;97222.47;;;34.20;31.20
21869;BME280;11099;41.564;23.296;2022-07-29T14:38:42;97241.63;;;34.23;31.47
21869;BME280;11099;41.564;23.296;2022-07-29T15:02:27;97293.22;;;33.14;38.61
21869;BME280;11099;41.564;23.296;2022-07-29T15:24:13;97275.44;;;33.76;36.58
21869;BME280;11099;41.564;23.296;2022-07-29T15:26:39;97259.38;;;33.74;36.19
21869;BME280;11099;41.564;23.296;2022-07-29T15:29:05;97258.13;;;33.75;36.06
21869;BME280;11099;41.564;23.296;2022-07-29T15:53:46;97135.91;;;32.99;34.49
21869;BME280;11099;41.564;23.296;2022-07-29T16:42:07;97175.66;;;32.38;38.04
21869;BME280;11099;41.564;23.296;2022-07-29T16:44:34;97231.97;;;32.83;37.54
21869;BME280;11099;41.564;23.296;2022-07-29T16:50:10;97277.91;;;33.04;38.53
21869;BME280;11099;41.564;23.296;2022-07-29T17:18:49;97170.34;;;31.04;42.81
21869;BME280;11099;41.564;23.296;2022-07-29T17:33:24;97101.31;;;30.27;45.00
21869;BME280;11099;41.564;23.296;2022-07-29T17:35:55;97226.31;;;31.19;45.66
21869;BME280;11099;41.564;23.296;2022-07-29T17:38:39;97189.41;;;30.77;47.14
21869;BME280;11099;41.564;23.296;2022-07-29T17:41:07;97163.13;;;30.54;47.56
21869;BME280;11099;41.564;23.296;2022-07-29T17:43:39;97264.34;;;31.34;47.93
21869;BME280;11099;41.564;23.296;2022-07-29T17:46:10;97136.00;;;30.34;48.21